Time;durP1;ratioP1;P1;durP2;ratioP2;P2;SDS_P1;SDS_P2;PMS_P1;PMS_P2;Temp;Humidity;BMP_temperature;BMP_pressure;BME280_temperature;BME280_humidity;BME280_pressure;Samples;Min_cycle;Max_cycle;Signal;HPM_P1;HPM_P2
2022/06/04 00:01:12;;;;;;;3.37;3.07;;;16.70;1.00;;;16.90;56.58;101239.06;5014936;28;20959;-72
2022/06/04 00:03:42;;;;;;;4.93;3.23;;;16.70;1.00;;;16.85;56.77;101234.31;5014308;28;20480;-72
2022/06/04 00:06:12;;;;;;;3.97;3.57;;;16.70;1.00;;;16.94;56.61;101232.09;5015016;28;20513;-73
2022/06/04 00:08:41;;;;;;;3.70;3.10;;;16.70;1.00;;;16.97;56.58;101230.75;5016373;28;20415;-73
2022/06/04 00:16:43;;;;;;;4.03;3.70;;;16.70;1.00;;;16.96;56.86;101235.41;5012929;28;20416;-71
2022/06/04 00:19:12;;;;;;;5.63;3.50;;;16.70;1.00;;;16.90;57.16;101236.34;5016736;28;20468;-73
2022/06/04 00:21:43;;;;;;;4.27;3.33;;;16.70;1.00;;;16.97;57.00;101234.34;5031702;22;20524;-73
2022/06/04 00:24:12;;;;;;;4.80;3.30;;;16.70;1.00;;;16.84;57.50;101229.09;5017881;28;20499;-73
2022/06/04 00:26:40;;;;;;;4.13;3.20;;;16.70;1.00;;;16.77;57.77;101229.19;5019883;28;20926;-73
2022/06/04 00:29:12;;;;;;;4.07;3.67;;;16.60;1.00;;;16.83;57.65;101217.31;5029785;28;20403;-71
2022/06/04 00:31:41;;;;;;;6.03;3.10;;;16.60;1.00;;;16.88;57.54;101216.63;5023649;28;20626;-74
2022/06/04 00:34:10;;;;;;;4.07;3.57;;;16.70;1.00;;;16.84;57.61;101219.00;5008897;28;20443;-74
2022/06/04 00:36:39;;;;;;;3.60;3.23;;;16.60;1.00;;;16.83;57.73;101222.78;5011402;28;20431;-73
2022/06/04 00:39:09;;;;;;;3.40;2.73;;;16.60;1.00;;;16.78;57.79;101221.84;5022516;28;20436;-73
2022/06/04 00:41:48;;;;;;;3.93;3.17;;;16.60;1.00;;;16.85;57.78;101219.81;5026803;28;20518;-74
2022/06/04 00:45:14;;;;;;;3.70;2.90;;;16.60;1.00;;;16.88;57.62;101213.88;5013760;28;20407;-73
2022/06/04 00:47:43;;;;;;;3.33;3.03;;;16.60;1.00;;;16.87;57.74;101212.22;4970748;28;20431;-72
2022/06/04 00:50:15;;;;;;;2.87;2.67;;;16.70;1.00;;;16.83;57.92;101203.66;5022138;28;20455;-73
2022/06/04 00:52:46;;;;;;;5.60;3.47;;;16.60;1.00;;;16.83;57.81;101206.41;5012855;28;21023;-73
2022/06/04 00:55:18;;;;;;;4.80;3.10;;;16.60;1.00;;;16.90;57.58;101207.09;5022522;28;20465;-73
2022/06/04 00:58:37;;;;;;;4.53;3.37;;;16.70;1.00;;;16.77;58.00;101204.59;5024033;28;20450;-74
2022/06/04 01:01:20;;;;;;;4.23;3.33;;;16.60;1.00;;;16.79;58.02;101204.38;5006917;28;20811;-73
2022/06/04 01:04:09;;;;;;;3.63;3.20;;;16.60;1.00;;;16.74;58.12;101204.25;5016382;28;20886;-72
2022/06/04 01:06:54;;;;;;;5.43;3.10;;;16.60;1.00;;;16.76;58.03;101204.81;5001097;28;20408;-73
2022/06/04 01:09:52;;;;;;;3.47;2.70;;;16.50;1.00;;;16.72;58.27;101209.94;5020210;28;20473;-73
2022/06/04 01:12:44;;;;;;;4.57;3.70;;;16.50;1.00;;;16.80;57.94;101211.47;5028116;28;20503;-74
2022/06/04 01:15:33;;;;;;;7.00;3.50;;;16.50;1.00;;;16.76;57.99;101211.13;5014480;28;21002;-73
2022/06/04 01:18:25;;;;;;;3.70;3.40;;;16.60;1.00;;;16.64;58.52;101209.44;5010412;28;20426;-74
2022/06/04 01:21:07;;;;;;;4.00;3.33;;;16.50;1.00;;;16.62;58.49;101214.31;5027748;28;20488;-72
2022/06/04 01:24:25;;;;;;;3.23;2.50;;;16.40;1.00;;;16.61;58.67;101216.19;5017371;28;20441;-74
2022/06/04 01:27:23;;;;;;;3.53;2.90;;;16.40;1.00;;;16.59;58.60;101218.34;5017441;28;20570;-72
2022/06/04 01:30:03;;;;;;;3.07;2.77;;;16.40;1.00;;;16.71;58.32;101219.19;5009029;28;20437;-74
2022/06/04 01:32:41;;;;;;;3.43;3.13;;;16.40;1.00;;;16.69;58.37;101218.63;5016801;28;20634;-73
2022/06/04 01:35:19;;;;;;;4.77;3.10;;;16.50;1.00;;;16.78;58.21;101209.00;5021101;28;20412;-73
2022/06/04 01:37:57;;;;;;;3.60;3.30;;;16.50;1.00;;;16.70;58.38;101206.59;5011623;28;20528;-72
2022/06/04 01:43:26;;;;;;;5.27;3.43;;;16.40;1.00;;;16.53;58.97;101211.03;5019841;28;20528;-74
2022/06/04 01:46:16;;;;;;;3.80;3.50;;;16.30;1.00;;;16.59;58.70;101210.16;5010052;28;20912;-73
2022/06/04 01:48:49;;;;;;;3.23;2.93;;;16.30;1.00;;;16.55;58.67;101202.63;5017066;28;20451;-72
2022/06/04 01:51:23;;;;;;;4.37;3.30;;;16.40;1.00;;;16.48;58.95;101202.72;5012168;28;20469;-75
2022/06/04 01:53:59;;;;;;;3.30;2.80;;;16.30;1.00;;;16.48;58.87;101197.25;5014519;28;21026;-73
2022/06/04 01:56:41;;;;;;;4.60;3.57;;;16.20;1.00;;;16.46;58.90;101200.22;5017674;28;21185;-73
2022/06/04 01:59:20;;;;;;;3.20;3.00;;;16.30;1.00;;;16.45;58.61;101197.72;5005432;28;20488;-73
2022/06/04 02:01:52;;;;;;;5.20;3.43;;;16.30;1.00;;;16.48;58.43;101208.19;5013666;28;20508;-72
2022/06/04 02:04:29;;;;;;;2.77;2.33;;;16.30;1.00;;;16.47;58.32;101201.88;5015060;28;20414;-73
2022/06/04 02:09:59;;;;;;;3.00;2.53;;;16.20;1.00;;;16.34;58.46;101199.34;5004596;28;20436;-72
2022/06/04 02:12:28;;;;;;;5.70;3.40;;;16.20;1.00;;;16.31;58.31;101196.28;5027825;28;20934;-73
2022/06/04 02:14:58;;;;;;;4.53;2.63;;;16.10;1.00;;;16.30;58.35;101194.59;5009375;28;20894;-73
2022/06/04 02:17:28;;;;;;;3.20;2.90;;;16.10;1.00;;;16.30;58.26;101197.31;5015431;28;20435;-72
2022/06/04 02:19:57;;;;;;;3.77;2.43;;;16.10;1.00;;;16.29;58.19;101195.66;5024870;28;20913;-73
2022/06/04 02:22:26;;;;;;;2.37;2.17;;;16.10;1.00;;;16.26;58.23;101198.84;5020392;28;20887;-74
2022/06/04 02:24:55;;;;;;;3.80;2.53;;;16.10;1.00;;;16.27;57.89;101201.34;5012240;28;20543;-73
2022/06/04 02:27:23;;;;;;;5.07;3.10;;;16.10;1.00;;;16.26;58.06;101201.59;5016737;28;20473;-73
2022/06/04 02:29:52;;;;;;;3.07;2.47;;;16.10;1.00;;;16.21;57.85;101196.00;5019079;28;20505;-71
2022/06/04 02:32:33;;;;;;;2.30;2.10;;;16.00;1.00;;;16.15;58.05;101202.38;5011961;28;20992;-73
2022/06/04 02:35:10;;;;;;;5.20;3.17;;;16.00;1.00;;;16.09;57.97;101204.97;5014947;28;20507;-71
2022/06/04 02:37:51;;;;;;;2.87;2.57;;;15.90;1.00;;;16.16;57.80;101209.50;5017559;28;20432;-73
2022/06/04 02:40:27;;;;;;;3.47;2.80;;;16.00;1.00;;;16.07;57.83;101209.00;5016248;28;20449;-73
2022/06/04 02:43:06;;;;;;;3.53;2.93;;;15.90;1.00;;;16.15;57.55;101203.22;5021990;28;20588;-74
2022/06/04 02:45:42;;;;;;;4.00;3.10;;;15.90;1.00;;;16.16;57.50;101204.88;5018639;28;20435;-72
2022/06/04 02:48:19;;;;;;;4.27;3.87;;;16.00;1.00;;;16.05;57.60;101200.19;5019549;28;20402;-72
2022/06/04 02:50:57;;;;;;;6.10;2.50;;;15.90;1.00;;;15.98;57.72;101197.53;5016729;28;20510;-73
2022/06/04 02:53:30;;;;;;;3.30;3.00;;;15.80;1.00;;;16.14;57.44;101203.44;5013899;28;20805;-71
2022/06/04 02:56:09;;;;;;;2.77;2.40;;;15.90;1.00;;;16.00;57.28;101211.81;5020099;28;20409;-72
2022/06/04 02:58:42;;;;;;;3.30;2.73;;;15.80;1.00;;;16.06;57.17;101210.06;5018927;28;20399;-71
2022/06/04 03:01:13;;;;;;;3.37;2.50;;;15.80;1.00;;;15.98;57.49;101221.28;5019190;28;20918;-71
2022/06/04 03:03:44;;;;;;;5.17;2.67;;;15.80;1.00;;;15.87;57.48;101217.44;5022775;28;20784;-72
2022/06/04 03:06:27;;;;;;;4.27;3.07;;;15.70;1.00;;;15.94;57.59;101223.63;5017864;28;20535;-72
2022/06/04 03:08:56;;;;;;;3.20;2.80;;;15.80;1.00;;;15.91;57.81;101217.81;5023408;28;20448;-72
2022/06/04 03:11:25;;;;;;;2.80;2.47;;;15.70;1.00;;;15.90;57.95;101222.44;5014797;28;20452;-72
2022/06/04 03:13:54;;;;;;;3.20;2.90;;;15.70;1.00;;;15.82;57.76;101222.75;5024925;28;20739;-71
2022/06/04 03:16:23;;;;;;;4.13;3.00;;;15.70;1.00;;;15.74;58.17;101227.66;5021501;28;20403;-73
2022/06/04 03:18:53;;;;;;;3.40;2.87;;;15.60;1.00;;;15.70;58.23;101221.84;5017576;28;20910;-72
2022/06/04 03:21:22;;;;;;;3.33;3.03;;;15.60;1.00;;;15.76;57.98;101220.94;5012179;28;20493;-73
2022/06/04 03:23:51;;;;;;;4.20;3.43;;;15.50;1.00;;;15.89;57.44;101220.75;5007725;28;20533;-73
2022/06/04 03:26:20;;;;;;;4.07;3.10;;;15.70;1.00;;;15.82;57.70;101225.47;5014052;28;20426;-72
2022/06/04 03:28:49;;;;;;;3.17;2.73;;;15.60;1.00;;;15.80;57.72;101226.75;5006419;28;20481;-72
2022/06/04 03:31:17;;;;;;;3.43;3.00;;;15.60;1.00;;;15.74;57.69;101224.94;5024835;28;20470;-74
2022/06/04 03:33:46;;;;;;;5.40;2.60;;;15.60;1.00;;;15.77;57.31;101233.53;5020338;28;20461;-72
2022/06/04 03:36:17;;;;;;;3.07;2.87;;;15.60;1.00;;;15.83;56.96;101229.06;5026261;28;20411;-73
2022/06/04 03:38:45;;;;;;;3.07;2.87;;;15.60;1.00;;;15.87;56.92;101228.38;5019869;28;20444;-72
2022/06/04 03:41:14;;;;;;;2.67;2.47;;;15.60;1.00;;;15.93;56.46;101243.78;5007158;28;20862;-73
2022/06/04 03:43:46;;;;;;;3.10;2.87;;;15.70;1.00;;;15.94;56.58;101248.19;5012669;28;20436;-73
2022/06/04 03:46:15;;;;;;;3.13;2.23;;;15.70;1.00;;;15.88;56.59;101240.91;5013045;28;20447;-72
2022/06/04 03:48:44;;;;;;;4.40;2.97;;;15.70;1.00;;;15.75;56.79;101241.09;5013625;28;20548;-73
2022/06/04 03:51:13;;;;;;;3.10;2.43;;;15.60;1.00;;;15.76;56.80;101242.75;5012967;28;20481;-72
2022/06/04 03:53:43;;;;;;;4.10;3.00;;;15.60;1.00;;;15.75;56.80;101241.09;5019116;28;20515;-72
2022/06/04 03:56:12;;;;;;;4.47;3.20;;;15.60;1.00;;;16.03;55.91;101244.09;5010373;28;20451;-71
2022/06/04 03:58:41;;;;;;;2.50;2.30;;;15.60;1.00;;;16.23;55.21;101248.47;5021594;28;20525;-73
2022/06/04 04:01:16;;;;;;;2.87;2.53;;;15.80;1.00;;;16.16;55.37;101247.72;5000673;28;20876;-73
2022/06/04 04:03:46;;;;;;;4.87;3.00;;;15.90;1.00;;;16.00;55.42;101260.94;5012350;28;20441;-73
2022/06/04 04:06:18;;;;;;;3.23;2.93;;;15.80;1.00;;;16.03;55.36;101254.19;5022466;28;20495;-72
2022/06/04 04:08:48;;;;;;;2.63;2.33;;;15.80;1.00;;;15.94;55.49;101256.38;5011099;28;20431;-72
2022/06/04 04:11:22;;;;;;;5.30;2.70;;;15.70;1.00;;;15.98;55.46;101252.13;5022315;28;20507;-72
2022/06/04 04:13:51;;;;;;;2.90;2.40;;;15.70;1.00;;;16.04;55.25;101243.03;5018407;28;20507;-71
2022/06/04 04:16:23;;;;;;;2.73;2.53;;;15.80;1.00;;;16.08;55.28;101241.50;5017552;28;20856;-73
2022/06/04 04:18:52;;;;;;;2.90;2.40;;;15.80;1.00;;;16.32;54.85;101247.91;5023929;28;20440;-73
2022/06/04 04:21:23;;;;;;;2.60;2.40;;;15.90;1.00;;;16.34;54.59;101251.25;5017837;28;20483;-71
2022/06/04 04:23:53;;;;;;;2.67;2.30;;;16.00;1.00;;;16.41;54.23;101249.25;5017963;28;20518;-72
2022/06/04 04:26:22;;;;;;;4.67;2.37;;;16.10;1.00;;;16.60;54.06;101246.50;5010998;28;20408;-73
2022/06/04 04:28:51;;;;;;;3.63;2.97;;;16.20;1.00;;;16.45;54.20;101244.16;5015525;28;20478;-73
2022/06/04 04:31:21;;;;;;;5.70;2.57;;;16.20;1.00;;;16.20;55.01;101238.00;5012548;28;20456;-72
2022/06/04 04:33:50;;;;;;;3.83;3.10;;;16.00;1.00;;;16.29;54.86;101250.28;5021481;28;20451;-73
2022/06/04 04:36:19;;;;;;;4.07;2.60;;;16.00;1.00;;;16.31;54.74;101242.69;5013553;28;20424;-73
2022/06/04 04:38:49;;;;;;;4.87;2.60;;;16.00;1.00;;;16.38;54.49;101246.16;5017386;28;20513;-72
2022/06/04 04:41:19;;;;;;;3.53;2.33;;;16.10;1.00;;;16.29;54.55;101242.09;5003120;28;20495;-72
2022/06/04 04:43:49;;;;;;;2.50;2.30;;;16.00;1.00;;;16.34;54.48;101244.94;5020820;28;20508;-71
2022/06/04 04:46:21;;;;;;;4.00;2.60;;;16.00;1.00;;;16.23;54.83;101237.53;5014932;28;20435;-73
2022/06/04 04:48:51;;;;;;;2.90;2.47;;;16.00;1.00;;;16.30;54.46;101249.22;5010903;28;20480;-73
2022/06/04 04:51:24;;;;;;;3.10;2.67;;;16.00;1.00;;;16.16;54.77;101247.72;5014217;28;20993;-72
2022/06/04 04:53:54;;;;;;;3.40;2.20;;;16.00;1.00;;;16.18;54.92;101251.88;5007593;28;20424;-73
2022/06/04 04:56:25;;;;;;;4.77;3.10;;;15.90;1.00;;;16.33;54.11;101252.31;5017139;28;20411;-72
2022/06/04 04:58:55;;;;;;;2.80;2.30;;;16.00;1.00;;;16.34;54.41;101251.25;5021045;28;20456;-73
2022/06/04 05:01:27;;;;;;;5.20;3.00;;;16.00;1.00;;;16.22;54.72;101264.00;5025880;28;20511;-73
2022/06/04 05:03:57;;;;;;;3.40;2.70;;;16.00;1.00;;;16.35;54.44;101268.47;5010172;28;20444;-72
2022/06/04 05:06:31;;;;;;;3.83;1.90;;;16.10;1.00;;;16.28;54.61;101273.19;5017842;28;20399;-73
2022/06/04 05:09:00;;;;;;;3.43;2.20;;;16.00;1.00;;;16.36;54.51;101270.94;5027137;28;20498;-72
2022/06/04 05:11:33;;;;;;;3.30;3.00;;;16.10;1.00;;;16.31;54.52;101267.28;5023248;28;20430;-73
2022/06/04 05:14:03;;;;;;;4.33;3.37;;;16.10;1.00;;;16.34;54.53;101269.53;5017036;28;20502;-74
2022/06/04 05:16:36;;;;;;;3.50;2.67;;;16.10;1.00;;;16.45;54.08;101276.94;5007977;28;20454;-73
2022/06/04 05:19:06;;;;;;;3.70;2.70;;;16.10;1.00;;;16.43;53.87;101273.59;5021938;28;20898;-72
2022/06/04 05:21:43;;;;;;;8.07;3.67;;;16.10;1.00;;;16.53;53.95;101271.16;5020429;28;20434;-73
2022/06/04 05:24:19;;;;;;;3.30;3.00;;;16.20;1.00;;;16.51;53.62;101263.19;5021127;28;20510;-73
2022/06/04 05:26:49;;;;;;;5.10;2.30;;;16.20;1.00;;;16.55;53.75;101269.03;5021495;28;20451;-72
2022/06/04 05:29:19;;;;;;;3.10;2.70;;;16.30;1.00;;;16.39;53.74;101272.41;5025153;28;20906;-73
2022/06/04 05:31:48;;;;;;;6.10;2.80;;;16.20;1.00;;;16.35;54.00;101263.00;5010618;28;20467;-72
2022/06/04 05:34:19;;;;;;;3.33;2.37;;;16.10;1.00;;;16.34;53.83;101262.16;5019989;28;20438;-72
2022/06/04 05:36:49;;;;;;;3.10;2.80;;;16.10;1.00;;;16.34;54.08;101264.91;5006133;28;20787;-72
2022/06/04 05:39:19;;;;;;;3.40;2.60;;;16.10;1.00;;;16.47;53.81;101264.72;5023683;28;20439;-73
2022/06/04 05:41:49;;;;;;;3.53;2.60;;;16.20;1.00;;;16.38;54.01;101268.00;5015855;28;20495;-73
2022/06/04 05:44:19;;;;;;;2.67;2.37;;;16.20;1.00;;;16.49;53.62;101275.41;5025099;28;20533;-73
2022/06/04 05:46:48;;;;;;;4.83;2.90;;;16.20;1.00;;;16.50;53.70;101272.47;5009415;28;20400;-73
2022/06/04 05:49:20;;;;;;;4.63;3.00;;;16.20;1.00;;;16.69;53.25;101262.34;5021916;28;20470;-71
2022/06/04 05:51:51;;;;;;;3.97;2.90;;;16.30;1.00;;;16.77;52.82;101256.53;5022946;28;20760;-72
2022/06/04 05:54:21;;;;;;;2.40;2.20;;;16.40;1.00;;;16.82;52.58;101255.81;5020373;28;20423;-71
2022/06/04 05:56:52;;;;;;;3.90;3.03;;;16.50;1.00;;;16.93;52.25;101255.84;5010548;28;20424;-73
2022/06/04 05:59:24;;;;;;;3.00;2.70;;;16.60;1.00;;;17.10;51.76;101268.81;5016548;28;20885;-73
2022/06/04 06:01:53;;;;;;;2.90;2.70;;;16.70;1.00;;;17.13;51.38;101282.88;5020493;28;20529;-73
2022/06/04 06:04:25;;;;;;;2.53;2.33;;;16.80;1.00;;;16.99;51.27;101275.13;5027914;28;20985;-73
2022/06/04 06:06:58;;;;;;;4.30;3.07;;;16.80;1.00;;;17.09;51.37;101280.84;5013329;23;20522;-69
2022/06/04 06:09:28;;;;;;;3.03;2.33;;;16.80;1.00;;;17.20;50.65;101285.47;5000907;28;20727;-68
2022/06/04 06:11:58;;;;;;;17.87;16.33;;;16.90;1.00;;;17.32;50.56;101280.84;5013568;28;20850;-69
2022/06/04 06:14:27;;;;;;;5.43;2.87;;;17.00;1.00;;;17.57;49.82;101277.88;5015343;28;20495;-68
2022/06/04 06:16:56;;;;;;;4.97;4.50;;;17.20;1.00;;;17.60;49.35;101282.91;5015755;28;20445;-66
2022/06/04 06:19:37;;;;;;;4.00;3.47;;;17.30;1.00;;;17.64;49.20;101284.91;5022728;28;20440;-68
2022/06/04 06:22:06;;;;;;;8.60;2.67;;;17.40;1.00;;;17.70;48.44;101288.59;5002584;28;20537;-72
2022/06/04 06:24:35;;;;;;;6.70;6.00;;;17.40;1.00;;;17.81;48.36;101291.31;5011157;28;20447;-70
2022/06/04 06:27:08;;;;;;;4.60;3.40;;;17.50;1.00;;;17.89;48.00;101292.03;5012403;28;20458;-73
2022/06/04 06:29:39;;;;;;;6.33;4.00;;;17.60;1.00;;;17.85;47.71;101297.16;5013467;28;20820;-70
2022/06/04 06:32:08;;;;;;;3.60;3.30;;;17.60;1.00;;;17.95;47.34;101296.56;4972520;28;20437;-74
2022/06/04 06:34:37;;;;;;;6.43;5.83;;;17.60;1.00;;;17.85;47.37;101296.31;4994973;28;20445;-73
2022/06/04 06:37:06;;;;;;;4.80;4.00;;;17.60;1.00;;;18.06;46.87;101298.41;4984936;28;20451;-72
2022/06/04 06:39:35;;;;;;;5.50;3.13;;;17.70;1.00;;;18.38;45.78;101302.38;4985975;28;20417;-72
2022/06/04 06:42:06;;;;;;;3.33;2.67;;;17.90;1.00;;;18.35;45.55;101299.31;4998680;28;20487;-73
2022/06/04 06:45:01;;;;;;;2.50;2.30;;;18.00;1.00;;;18.36;45.38;101298.22;4988632;28;20568;-73
2022/06/04 06:47:32;;;;;;;6.00;5.43;;;18.10;1.00;;;18.28;45.52;101299.44;4996699;28;20557;-75
2022/06/04 06:50:02;;;;;;;4.23;3.90;;;18.00;1.00;;;18.32;45.40;101308.84;5004881;28;20521;-74
2022/06/04 06:52:30;;;;;;;3.17;2.97;;;18.00;1.00;;;18.33;45.38;101312.41;4999282;28;20450;-71
2022/06/04 06:54:59;;;;;;;2.80;2.10;;;18.00;1.00;;;18.61;44.92;101307.78;5003658;28;20440;-72
2022/06/04 06:57:29;;;;;;;2.20;2.00;;;18.20;1.00;;;18.47;44.89;101311.03;5001602;28;20413;-72
2022/06/04 06:59:58;;;;;;;2.93;2.03;;;18.20;1.00;;;18.60;44.50;101310.78;4995533;28;20432;-73
2022/06/04 07:02:27;;;;;;;2.73;2.23;;;18.30;1.00;;;18.70;44.69;101319.19;4995327;28;20455;-73
2022/06/04 07:04:56;;;;;;;3.40;2.70;;;18.40;1.00;;;18.86;44.63;101320.31;5011003;28;20457;-73
2022/06/04 07:07:24;;;;;;;3.60;2.70;;;18.50;1.00;;;18.89;44.37;101314.31;5009747;28;20925;-73
2022/06/04 07:09:54;;;;;;;3.20;2.40;;;18.50;1.00;;;18.93;44.74;101323.72;4995518;28;20468;-73
2022/06/04 07:12:23;;;;;;;2.57;2.10;;;18.50;1.00;;;19.20;44.36;101315.69;4999739;28;20783;-73
2022/06/04 07:14:53;;;;;;;6.53;5.93;;;18.70;1.00;;;19.51;43.07;101324.19;5000455;28;20941;-73
2022/06/04 07:17:22;;;;;;;53.50;47.03;;;18.90;1.00;;;19.56;43.38;101330.88;5013067;28;20426;-73
2022/06/04 07:19:51;;;;;;;47.80;44.47;;;19.10;1.00;;;19.82;42.50;101335.63;5004237;28;20465;-72
2022/06/04 07:22:20;;;;;;;4.37;3.97;;;19.30;1.00;;;19.59;42.87;101330.34;4995143;28;20492;-73
2022/06/04 07:24:48;;;;;;;3.90;3.50;;;19.20;1.00;;;19.35;42.77;101333.25;4990517;28;20484;-72
2022/06/04 07:27:17;;;;;;;2.30;2.10;;;19.20;1.00;;;19.45;42.96;101336.19;4994699;28;20484;-72
2022/06/04 07:29:46;;;;;;;3.83;3.53;;;19.10;1.00;;;19.57;43.01;101327.84;4995917;28;20469;-72
2022/06/04 07:32:16;;;;;;;2.70;2.27;;;19.20;1.00;;;19.63;42.71;101334.25;5000326;28;20512;-74
2022/06/04 07:34:45;;;;;;;7.27;6.53;;;19.20;1.00;;;19.72;42.46;101333.56;5004657;28;20848;-73
2022/06/04 07:37:14;;;;;;;6.40;5.00;;;19.30;1.00;;;19.77;42.66;101343.81;5005333;28;20412;-73
2022/06/04 07:39:43;;;;;;;9.23;6.87;;;19.30;1.00;;;19.83;42.52;101351.88;4976679;28;20989;-73
2022/06/04 07:42:19;;;;;;;4.93;4.23;;;19.40;1.00;;;19.88;41.64;101348.38;5007775;28;20933;-73
2022/06/04 07:44:48;;;;;;;3.20;2.20;;;19.50;1.00;;;19.95;41.86;101351.75;5008329;28;20843;-73
2022/06/04 07:47:18;;;;;;;3.70;2.73;;;19.60;1.00;;;20.05;42.29;101346.41;5008111;28;20963;-73
2022/06/04 07:49:47;;;;;;;7.03;6.33;;;19.70;1.00;;;20.24;41.82;101356.00;4994123;28;20458;-73
2022/06/04 07:52:15;;;;;;;10.33;9.53;;;19.80;1.00;;;20.03;42.70;101348.59;4992250;28;21003;-72
2022/06/04 07:54:44;;;;;;;3.93;3.53;;;19.70;1.00;;;20.08;41.46;101354.16;5003157;28;20437;-72
2022/06/04 07:57:13;;;;;;;4.03;3.53;;;19.70;1.00;;;20.16;41.71;101353.69;4981641;28;20421;-72
2022/06/04 07:59:42;;;;;;;4.73;2.57;;;19.80;1.00;;;20.32;41.71;101365.78;4994307;28;20434;-72
2022/06/04 08:02:12;;;;;;;9.03;7.30;;;19.90;1.00;;;19.88;41.95;101362.94;5004591;28;20446;-72
2022/06/04 08:04:42;;;;;;;5.20;4.67;;;19.70;1.00;;;20.15;41.60;101368.53;4995922;28;20625;-73
2022/06/04 08:07:12;;;;;;;5.10;2.90;;;19.80;1.00;;;20.17;41.60;101371.84;4996500;28;20460;-74
2022/06/04 08:09:41;;;;;;;7.63;6.90;;;19.80;1.00;;;19.98;41.71;101373.25;4993834;28;20921;-74
2022/06/04 08:12:10;;;;;;;4.97;3.97;;;19.70;1.00;;;19.82;41.90;101372.19;4992541;28;20449;-72
2022/06/04 08:14:39;;;;;;;3.90;3.50;;;19.60;1.00;;;19.91;42.48;101378.91;4992262;28;20460;-71
2022/06/04 08:17:08;;;;;;;5.03;3.90;;;19.60;1.00;;;20.12;42.15;101380.03;4992727;28;20534;-71
2022/06/04 08:19:38;;;;;;;3.27;2.53;;;19.80;1.00;;;20.19;42.12;101377.09;4992435;28;20533;-71
2022/06/04 08:22:15;;;;;;;3.70;2.53;;;19.80;1.00;;;19.93;42.46;101381.41;4989266;28;20438;-72
2022/06/04 08:24:47;;;;;;;3.30;2.37;;;19.70;1.00;;;20.08;41.92;101378.88;4994339;28;20479;-72
2022/06/04 08:27:16;;;;;;;2.70;2.40;;;19.80;1.00;;;19.98;42.29;101383.41;5006293;28;20454;-72
2022/06/04 08:29:46;;;;;;;2.90;2.10;;;19.70;1.00;;;20.17;41.81;101376.53;4995678;28;20441;-71
2022/06/04 08:32:26;;;;;;;3.83;2.50;;;19.80;1.00;;;20.58;41.17;101378.72;4992632;28;20839;-72
2022/06/04 08:34:55;;;;;;;2.87;2.10;;;20.10;1.00;;;20.59;41.49;101379.56;5005154;28;20528;-73
2022/06/04 08:37:25;;;;;;;1.70;1.60;;;20.20;1.00;;;20.68;40.94;101378.84;5006735;28;20512;-72
2022/06/04 08:39:54;;;;;;;2.30;1.70;;;20.30;1.00;;;20.58;40.77;101377.88;5000301;28;20440;-73
2022/06/04 08:42:41;;;;;;;2.67;1.97;;;20.20;1.00;;;20.78;41.05;101380.88;5002606;28;20489;-72
2022/06/04 08:45:13;;;;;;;3.03;1.70;;;20.30;1.00;;;20.85;40.93;101386.19;5004508;28;20451;-73
2022/06/04 08:47:47;;;;;;;3.17;1.80;;;20.40;1.00;;;20.87;41.25;101392.25;5003143;28;20459;-73
2022/06/04 08:50:22;;;;;;;2.07;1.87;;;20.50;1.00;;;20.83;41.00;101398.28;5001777;28;20432;-74
2022/06/04 08:52:59;;;;;;;2.40;1.80;;;20.50;1.00;;;21.07;41.23;101382.28;5003659;28;20456;-73
2022/06/04 08:58:43;;;;;;;4.43;1.90;;;20.70;1.00;;;20.85;41.26;101378.78;4991380;28;20960;-74
2022/06/04 09:01:19;;;;;;;2.97;2.07;;;20.60;1.00;;;20.75;41.38;101385.00;4988124;28;20484;-75
2022/06/04 09:04:01;;;;;;;2.50;1.70;;;20.50;1.00;;;21.00;41.48;101391.88;4996002;28;20431;-73
2022/06/04 09:06:48;;;;;;;2.53;2.03;;;20.60;1.00;;;20.94;41.80;101382.72;5002422;28;20417;-73
2022/06/04 09:09:27;;;;;;;2.77;1.27;;;20.60;1.00;;;20.82;42.46;101393.84;4993047;28;20434;-75
2022/06/04 09:12:04;;;;;;;2.17;1.97;;;20.50;1.00;;;20.84;42.05;101385.34;4999841;28;20419;-72
2022/06/04 09:14:39;;;;;;;3.73;2.57;;;20.50;1.00;;;20.78;42.13;101397.38;4990887;28;21022;-72
2022/06/04 09:17:17;;;;;;;1.93;1.77;;;20.40;1.00;;;20.70;42.13;101390.44;4994867;28;20980;-71
2022/06/04 09:19:56;;;;;;;2.80;1.97;;;20.40;1.00;;;20.81;42.07;101394.97;4993635;28;20511;-74
2022/06/04 09:22:40;;;;;;;1.83;1.60;;;20.50;1.00;;;21.13;41.77;101408.81;4991942;28;20445;-74
2022/06/04 09:25:14;;;;;;;2.57;2.10;;;20.60;1.00;;;21.20;41.80;101403.13;4986564;28;20477;-73
2022/06/04 09:27:55;;;;;;;2.13;1.93;;;20.80;1.00;;;21.00;41.40;101402.88;4997279;28;20474;-72
2022/06/04 09:30:31;;;;;;;2.43;2.20;;;20.70;1.00;;;21.32;41.44;101405.69;4984615;28;20879;-73
2022/06/04 09:33:35;;;;;;;4.37;2.60;;;20.90;1.00;;;21.82;41.45;101405.28;4997800;28;20495;-73
2022/06/04 09:36:05;;;;;;;5.70;3.07;;;21.20;1.00;;;22.17;40.07;101408.31;4996090;28;20512;-69
2022/06/04 09:38:35;;;;;;;2.77;2.20;;;21.50;1.00;;;21.98;40.28;101405.16;4997210;28;20504;-73
2022/06/04 09:41:18;;;;;;;4.83;2.80;;;21.70;1.00;;;21.81;40.32;101403.63;4991662;28;20519;-71
2022/06/04 09:43:59;;;;;;;4.00;2.13;;;21.60;1.00;;;22.15;40.35;101409.66;4991053;28;20438;-70
2022/06/04 09:46:29;;;;;;;2.10;1.90;;;21.70;1.00;;;22.89;39.27;101416.66;4990246;28;20440;-71
2022/06/04 09:49:01;;;;;;;2.10;1.90;;;22.20;1.00;;;23.36;38.38;101416.47;4990477;28;20461;-70
2022/06/04 09:51:44;;;;;;;2.43;2.23;;;22.70;1.00;;;23.68;37.89;101421.75;4989376;28;20958;-72
2022/06/04 09:54:29;;;;;;;2.60;2.40;;;23.10;1.00;;;24.43;36.61;101425.56;4989212;28;20484;-73
2022/06/04 09:57:03;;;;;;;3.57;2.50;;;23.60;1.00;;;23.94;36.50;101410.69;4988455;28;20866;-70
2022/06/04 09:59:35;;;;;;;2.60;2.03;;;23.70;1.00;;;24.11;36.05;101422.25;4988177;28;20507;-71
2022/06/04 10:02:19;;;;;;;2.67;2.47;;;23.70;1.00;;;23.91;36.32;101427.84;4991134;28;20458;-71
2022/06/04 10:04:59;;;;;;;3.10;2.53;;;23.70;1.00;;;23.68;36.65;101424.53;4987057;28;20468;-71
2022/06/04 10:07:33;;;;;;;3.70;2.10;;;23.40;1.00;;;23.85;36.42;101421.50;4987807;28;20532;-69
2022/06/04 10:10:28;;;;;;;3.50;3.20;;;23.50;1.00;;;24.15;35.90;101423.38;4988600;28;20835;-71
2022/06/04 10:15:48;;;;;;;2.43;2.10;;;23.80;1.00;;;24.16;36.36;101428.66;4994340;28;20492;-71
2022/06/04 10:18:26;;;;;;;3.77;2.00;;;23.70;1.00;;;24.10;36.79;101434.47;4990110;28;20438;-71
2022/06/04 10:21:01;;;;;;;3.67;2.97;;;23.70;1.00;;;23.79;37.14;101431.72;4995750;28;20483;-71
2022/06/04 10:23:41;;;;;;;2.43;2.23;;;23.50;1.00;;;23.54;36.99;101428.94;4996063;28;20812;-70
2022/06/04 10:26:31;;;;;;;2.57;2.10;;;23.30;1.00;;;23.94;36.52;101428.13;4992537;28;20552;-71
2022/06/04 10:29:42;;;;;;;2.57;2.20;;;23.40;1.00;;;23.69;36.37;101425.34;4988913;28;20409;-69
2022/06/04 10:32:25;;;;;;;3.43;2.43;;;23.50;1.00;;;23.94;36.54;101421.75;4964853;28;20482;-71
2022/06/04 10:35:25;;;;;;;3.13;2.60;;;23.50;1.00;;;23.39;37.34;101417.84;4994255;28;20464;-72
2022/06/04 10:38:16;;;;;;;7.53;2.60;;;23.20;1.00;;;23.50;37.47;101416.78;4999602;28;20411;-73
2022/06/04 10:41:05;;;;;;;2.60;2.40;;;23.20;1.00;;;23.83;37.09;101413.47;4997842;28;20466;-68
2022/06/04 10:44:41;;;;;;;2.40;2.20;;;23.30;1.00;;;23.95;36.86;101406.84;4993354;28;20456;-69
2022/06/04 10:47:27;;;;;;;2.83;2.50;;;23.50;1.00;;;24.34;36.37;101418.13;4992919;28;21031;-70
2022/06/04 10:51:25;;;;;;;2.73;2.53;;;23.80;1.00;;;24.55;36.33;101406.69;4988093;28;21021;-71
2022/06/04 10:53:51;;;;;;;2.87;2.67;;;24.10;1.00;;;24.72;36.08;101403.56;4966147;28;20481;-71
2022/06/04 10:56:29;;;;;;;2.80;2.23;;;24.30;1.00;;;24.87;35.78;101402.69;4987488;28;20492;-69
2022/06/04 10:59:09;;;;;;;2.70;1.90;;;24.50;1.00;;;25.27;35.11;101396.88;4995224;28;20554;-71
2022/06/04 11:01:48;;;;;;;3.70;2.07;;;24.80;1.00;;;24.98;35.81;101393.22;4997136;28;20466;-71
2022/06/04 11:04:31;;;;;;;2.70;2.30;;;24.70;1.00;;;25.16;35.65;101386.19;4991004;28;20472;-72
2022/06/04 11:07:19;;;;;;;3.10;2.47;;;24.80;1.00;;;24.85;35.71;101388.28;4994185;28;20568;-71
2022/06/04 11:09:52;;;;;;;3.50;3.20;;;24.60;1.00;;;24.79;35.69;101389.41;5007688;28;20503;-71